Time;durP1;ratioP1;P1;durP2;ratioP2;P2;SDS_P1;SDS_P2;PMS_P1;PMS_P2;Temp;Humidity;BMP_temperature;BMP_pressure;BME280_temperature;BME280_humidity;BME280_pressure;Samples;Min_cycle;Max_cycle;Signal;HPM_P1;HPM_P2
2021/01/03 00:00:26;;;;;;;114.38;38.22;;;;;;;;;;5053156;28;20033;-60
2021/01/03 00:02:52;;;;;;;123.35;39.22;;;;;;;;;;5055142;28;22582;-61
2021/01/03 00:05:20;;;;;;;104.95;38.90;;;;;;;;;;5051817;28;20045;-61
2021/01/03 00:07:46;;;;;;;110.88;37.00;;;;;;;;;;5049977;28;20573;-60
2021/01/03 00:10:12;;;;;;;114.80;38.17;;;;;;;;;;5026803;28;20033;-60
2021/01/03 00:12:39;;;;;;;110.45;37.10;;;;;;;;;;5052529;28;20125;-60
2021/01/03 00:15:06;;;;;;;120.05;38.88;;;;;;;;;;5048983;28;20194;-62
2021/01/03 00:17:32;;;;;;;124.93;41.58;;;;;;;;;;5054574;28;20779;-60
2021/01/03 00:19:58;;;;;;;118.30;40.55;;;;;;;;;;5051796;28;20045;-60
2021/01/03 00:22:24;;;;;;;117.90;39.60;;;;;;;;;;5052440;28;20622;-60
2021/01/03 00:24:50;;;;;;;111.47;37.63;;;;;;;;;;5051125;28;20056;-60
2021/01/03 00:27:16;;;;;;;114.55;39.15;;;;;;;;;;5052872;28;20102;-60
2021/01/03 00:29:42;;;;;;;115.45;39.00;;;;;;;;;;5051555;28;20044;-60
2021/01/03 00:32:08;;;;;;;107.18;38.47;;;;;;;;;;5052138;28;20032;-60
2021/01/03 00:34:34;;;;;;;111.03;37.83;;;;;;;;;;5049270;28;20110;-60
2021/01/03 00:37:00;;;;;;;115.65;38.05;;;;;;;;;;5054861;28;20046;-60
2021/01/03 00:39:26;;;;;;;113.90;38.15;;;;;;;;;;5051318;28;20508;-60
2021/01/03 00:41:52;;;;;;;115.05;39.08;;;;;;;;;;5054366;28;20086;-60
2021/01/03 00:44:19;;;;;;;117.15;39.65;;;;;;;;;;5047789;28;20032;-60
2021/01/03 00:46:45;;;;;;;118.32;38.05;;;;;;;;;;5053891;28;20033;-60
2021/01/03 00:49:11;;;;;;;128.93;41.60;;;;;;;;;;5054074;28;20039;-60
2021/01/03 00:51:36;;;;;;;137.43;40.15;;;;;;;;;;5038378;28;20040;-60
2021/01/03 00:54:03;;;;;;;116.75;38.50;;;;;;;;;;5059058;28;20040;-60
2021/01/03 00:56:28;;;;;;;126.75;41.40;;;;;;;;;;5051748;28;20105;-60
2021/01/03 00:58:55;;;;;;;120.03;41.00;;;;;;;;;;5053030;28;20465;-60
2021/01/03 01:01:21;;;;;;;131.98;42.25;;;;;;;;;;5048608;28;20056;-60
2021/01/03 01:03:47;;;;;;;134.27;41.03;;;;;;;;;;5053578;28;20529;-60
2021/01/03 01:06:13;;;;;;;149.20;41.80;;;;;;;;;;5054993;28;20045;-60
2021/01/03 01:08:39;;;;;;;137.23;42.33;;;;;;;;;;5052207;28;20039;-60
2021/01/03 01:11:06;;;;;;;146.30;43.92;;;;;;;;;;5044756;28;20048;-60
2021/01/03 01:13:32;;;;;;;135.77;41.63;;;;;;;;;;5039960;28;20131;-60
2021/01/03 01:15:58;;;;;;;141.73;43.50;;;;;;;;;;5037467;28;20056;-60
2021/01/03 01:18:25;;;;;;;140.48;43.05;;;;;;;;;;5035315;28;20064;-60
2021/01/03 01:20:50;;;;;;;144.00;45.25;;;;;;;;;;5031673;28;20044;-60
2021/01/03 01:23:16;;;;;;;140.07;42.83;;;;;;;;;;5036896;28;20040;-60
2021/01/03 01:25:42;;;;;;;149.15;43.92;;;;;;;;;;5043614;28;21560;-60
2021/01/03 01:28:08;;;;;;;152.20;43.25;;;;;;;;;;5016230;28;20028;-60
2021/01/03 01:30:37;;;;;;;136.80;44.30;;;;;;;;;;5038906;28;20156;-60
2021/01/03 01:33:03;;;;;;;139.00;42.67;;;;;;;;;;5045057;28;20036;-60
2021/01/03 01:35:31;;;;;;;137.68;42.58;;;;;;;;;;5050942;28;22867;-60
2021/01/03 01:37:57;;;;;;;141.20;42.65;;;;;;;;;;5038696;28;20063;-60
2021/01/03 01:40:28;;;;;;;133.23;41.90;;;;;;;;;;5045928;28;20036;-60
2021/01/03 01:42:54;;;;;;;138.77;41.83;;;;;;;;;;5045141;28;20194;-60
2021/01/03 01:45:22;;;;;;;137.82;41.63;;;;;;;;;;5040728;28;20037;-60
2021/01/03 01:47:50;;;;;;;136.85;42.40;;;;;;;;;;5050293;28;20036;-60
2021/01/03 01:50:30;;;;;;;143.82;41.53;;;;;;;;;;5047683;28;20101;-60
2021/01/03 01:52:58;;;;;;;128.85;41.00;;;;;;;;;;5048108;28;20075;-60
2021/01/03 01:55:27;;;;;;;141.35;43.15;;;;;;;;;;5048602;28;20163;-60
2021/01/03 01:58:03;;;;;;;132.15;41.28;;;;;;;;;;5050240;28;20033;-60
2021/01/03 02:00:30;;;;;;;139.32;41.72;;;;;;;;;;5050151;28;20060;-60
2021/01/03 02:02:56;;;;;;;141.32;41.80;;;;;;;;;;5047402;28;20044;-60
2021/01/03 02:05:25;;;;;;;149.88;43.75;;;;;;;;;;5046043;28;20063;-60
2021/01/03 02:08:08;;;;;;;151.60;43.40;;;;;;;;;;5053805;28;20647;-60
2021/01/03 02:10:36;;;;;;;144.77;41.65;;;;;;;;;;5042757;28;20045;-60
2021/01/03 02:13:05;;;;;;;136.27;41.33;;;;;;;;;;5046396;28;20036;-60
2021/01/03 02:15:32;;;;;;;151.48;43.05;;;;;;;;;;5047641;28;20033;-60
2021/01/03 02:17:59;;;;;;;152.50;44.10;;;;;;;;;;5054688;28;20218;-60
2021/01/03 02:20:27;;;;;;;139.65;42.65;;;;;;;;;;5053661;28;20036;-61
2021/01/03 02:22:58;;;;;;;145.50;42.30;;;;;;;;;;5048040;28;20040;-60
2021/01/03 02:25:24;;;;;;;137.65;41.65;;;;;;;;;;5046034;28;20090;-60
2021/01/03 02:28:16;;;;;;;140.35;41.78;;;;;;;;;;5047604;28;20040;-60
2021/01/03 02:30:45;;;;;;;145.88;41.05;;;;;;;;;;5044265;28;20037;-60
2021/01/03 02:33:32;;;;;;;149.95;41.50;;;;;;;;;;5048029;28;20044;-60
2021/01/03 02:36:00;;;;;;;141.88;40.38;;;;;;;;;;5042847;28;20078;-60
2021/01/03 02:38:27;;;;;;;148.27;44.45;;;;;;;;;;5053667;28;20033;-60
2021/01/03 02:40:54;;;;;;;139.48;43.10;;;;;;;;;;5046960;28;20498;-60
2021/01/03 02:43:20;;;;;;;143.65;40.45;;;;;;;;;;5046518;28;20132;-60
2021/01/03 02:45:46;;;;;;;147.10;42.50;;;;;;;;;;5046856;28;20040;-60
2021/01/03 02:48:18;;;;;;;140.25;40.95;;;;;;;;;;5051423;28;20048;-60
2021/01/03 02:50:44;;;;;;;149.75;41.70;;;;;;;;;;5051438;28;20024;-60
2021/01/03 02:53:10;;;;;;;145.13;41.10;;;;;;;;;;5053058;28;20072;-61
2021/01/03 02:55:37;;;;;;;134.70;40.28;;;;;;;;;;5046658;28;20119;-60
2021/01/03 02:58:03;;;;;;;135.65;42.53;;;;;;;;;;5047279;28;20043;-60
2021/01/03 03:00:31;;;;;;;141.77;41.97;;;;;;;;;;5053673;28;20041;-60
2021/01/03 03:02:57;;;;;;;142.73;41.58;;;;;;;;;;5043457;28;20520;-60
2021/01/03 03:05:24;;;;;;;136.25;40.42;;;;;;;;;;5044792;28;20051;-60
2021/01/03 03:07:50;;;;;;;148.00;41.63;;;;;;;;;;5036600;28;20091;-60
2021/01/03 03:10:16;;;;;;;137.10;40.50;;;;;;;;;;5029473;28;20276;-60
2021/01/03 03:12:42;;;;;;;132.55;39.17;;;;;;;;;;5054107;28;20032;-60
2021/01/03 03:15:10;;;;;;;127.20;40.28;;;;;;;;;;5046962;28;20064;-60
2021/01/03 03:17:36;;;;;;;141.25;39.88;;;;;;;;;;5045698;28;20443;-60
2021/01/03 03:20:03;;;;;;;130.68;40.05;;;;;;;;;;5048649;28;20044;-60
2021/01/03 03:22:29;;;;;;;133.48;39.38;;;;;;;;;;5047834;28;20087;-60
2021/01/03 03:24:55;;;;;;;127.22;37.78;;;;;;;;;;5048366;28;20066;-60
2021/01/03 03:27:21;;;;;;;124.22;39.90;;;;;;;;;;5028910;28;20048;-60
2021/01/03 03:29:47;;;;;;;138.90;38.78;;;;;;;;;;5038570;28;20151;-60
2021/01/03 03:32:13;;;;;;;148.15;39.05;;;;;;;;;;5034616;28;20639;-60
2021/01/03 03:34:40;;;;;;;130.43;40.95;;;;;;;;;;5029093;28;20048;-60
2021/01/03 03:37:06;;;;;;;122.72;38.28;;;;;;;;;;5026457;28;20064;-60
2021/01/03 03:39:32;;;;;;;121.95;38.20;;;;;;;;;;5026436;28;20036;-60
2021/01/03 03:41:59;;;;;;;123.63;37.70;;;;;;;;;;5045551;28;20564;-60
2021/01/03 03:44:25;;;;;;;133.80;39.78;;;;;;;;;;5045864;28;20041;-60
2021/01/03 03:46:55;;;;;;;117.70;36.78;;;;;;;;;;5042869;28;20044;-60
2021/01/03 03:49:21;;;;;;;126.78;37.58;;;;;;;;;;5043362;28;20032;-60
2021/01/03 03:51:52;;;;;;;135.50;39.13;;;;;;;;;;5042884;28;20134;-59
2021/01/03 03:54:18;;;;;;;125.07;36.92;;;;;;;;;;5047192;28;20036;-60
2021/01/03 03:56:49;;;;;;;116.85;36.90;;;;;;;;;;5042848;28;20524;-60
2021/01/03 03:59:15;;;;;;;114.10;37.13;;;;;;;;;;5045428;28;20677;-60
2021/01/03 04:01:41;;;;;;;120.20;35.88;;;;;;;;;;5043652;28;20036;-60
2021/01/03 04:04:07;;;;;;;123.70;34.95;;;;;;;;;;5046285;28;20595;-60
2021/01/03 04:06:33;;;;;;;118.82;36.35;;;;;;;;;;5040886;28;20028;-60
2021/01/03 04:08:59;;;;;;;118.18;35.47;;;;;;;;;;5036207;28;20141;-60
2021/01/03 04:11:25;;;;;;;127.75;35.85;;;;;;;;;;5047666;28;20426;-60
2021/01/03 04:13:51;;;;;;;120.40;36.05;;;;;;;;;;5049877;28;20044;-60
2021/01/03 04:16:17;;;;;;;116.25;35.22;;;;;;;;;;5036788;28;20170;-60
2021/01/03 04:18:43;;;;;;;107.88;33.30;;;;;;;;;;5041382;28;20044;-60
2021/01/03 04:21:10;;;;;;;136.38;34.95;;;;;;;;;;5045923;28;20041;-60
2021/01/03 04:23:36;;;;;;;117.63;35.67;;;;;;;;;;5046682;28;20469;-60
2021/01/03 04:26:02;;;;;;;124.13;34.88;;;;;;;;;;5040825;28;20036;-60
2021/01/03 04:28:28;;;;;;;117.15;34.95;;;;;;;;;;5047749;28;20517;-60
2021/01/03 04:30:54;;;;;;;119.40;35.70;;;;;;;;;;5040710;28;20036;-60
2021/01/03 04:33:20;;;;;;;117.20;36.92;;;;;;;;;;5037390;28;20120;-60
2021/01/03 04:35:48;;;;;;;115.90;33.70;;;;;;;;;;5041348;28;20047;-60
2021/01/03 04:38:14;;;;;;;119.18;34.13;;;;;;;;;;5044376;28;20127;-60
2021/01/03 04:40:40;;;;;;;127.00;34.25;;;;;;;;;;5044707;28;20055;-60
2021/01/03 04:43:06;;;;;;;106.32;31.35;;;;;;;;;;5049007;28;20074;-60
2021/01/03 04:45:37;;;;;;;114.75;31.55;;;;;;;;;;5045751;28;20041;-60
2021/01/03 04:48:20;;;;;;;116.70;33.15;;;;;;;;;;5050574;28;20059;-60
2021/01/03 04:50:58;;;;;;;130.90;34.92;;;;;;;;;;5043627;28;20041;-60
2021/01/03 04:53:27;;;;;;;126.25;33.42;;;;;;;;;;5054043;28;20029;-60
2021/01/03 04:55:56;;;;;;;131.00;32.53;;;;;;;;;;5044324;28;20071;-60
2021/01/03 04:58:41;;;;;;;119.95;33.17;;;;;;;;;;5049973;28;20155;-60
2021/01/03 05:01:16;;;;;;;109.75;31.70;;;;;;;;;;5042113;28;20041;-60
2021/01/03 05:04:05;;;;;;;119.95;32.53;;;;;;;;;;5036697;28;20044;-60
2021/01/03 05:06:31;;;;;;;115.18;31.88;;;;;;;;;;5014789;28;20955;-60
2021/01/03 05:09:02;;;;;;;122.07;32.38;;;;;;;;;;5039320;28;20033;-60
2021/01/03 05:11:33;;;;;;;128.90;33.75;;;;;;;;;;5045439;28;20117;-60
2021/01/03 05:14:10;;;;;;;134.93;35.33;;;;;;;;;;5041685;28;20043;-60
2021/01/03 05:16:36;;;;;;;115.97;34.38;;;;;;;;;;5039528;28;20079;-60
2021/01/03 05:19:01;;;;;;;122.95;32.95;;;;;;;;;;5046421;28;20111;-60
2021/01/03 05:21:43;;;;;;;118.28;34.83;;;;;;;;;;5045392;28;20110;-60
2021/01/03 05:24:09;;;;;;;122.45;34.38;;;;;;;;;;5050900;28;20040;-60
2021/01/03 05:26:37;;;;;;;126.35;34.28;;;;;;;;;;5037095;28;20090;-60
2021/01/03 05:29:04;;;;;;;131.75;34.40;;;;;;;;;;5041394;28;20037;-60
2021/01/03 05:31:30;;;;;;;133.45;35.25;;;;;;;;;;5049081;28;20040;-60
2021/01/03 05:33:59;;;;;;;116.05;33.58;;;;;;;;;;5045152;28;20581;-60
2021/01/03 05:36:31;;;;;;;133.02;34.47;;;;;;;;;;5045092;28;20044;-60
2021/01/03 05:38:57;;;;;;;127.20;35.40;;;;;;;;;;5052188;28;20037;-60
2021/01/03 05:41:31;;;;;;;136.25;33.83;;;;;;;;;;5044409;28;20378;-60
2021/01/03 05:44:08;;;;;;;130.02;33.72;;;;;;;;;;5064786;28;20043;-60
2021/01/03 05:46:38;;;;;;;130.65;35.78;;;;;;;;;;5045969;28;20020;-60
2021/01/03 05:49:06;;;;;;;128.48;36.28;;;;;;;;;;5053324;28;20937;-60
2021/01/03 05:51:32;;;;;;;140.95;35.97;;;;;;;;;;5047151;28;20705;-60
2021/01/03 05:54:02;;;;;;;133.88;35.95;;;;;;;;;;5050329;28;20037;-60
2021/01/03 05:56:28;;;;;;;120.65;34.05;;;;;;;;;;5045460;28;20044;-60
2021/01/03 05:58:55;;;;;;;133.30;35.22;;;;;;;;;;5048147;28;20024;-60
2021/01/03 06:01:25;;;;;;;127.75;34.85;;;;;;;;;;5046121;28;20033;-60
2021/01/03 06:04:03;;;;;;;124.57;33.85;;;;;;;;;;5046988;28;20144;-59
2021/01/03 06:06:48;;;;;;;117.57;35.13;;;;;;;;;;5051648;28;20033;-60
2021/01/03 06:09:14;;;;;;;128.45;34.30;;;;;;;;;;5041346;28;20120;-60
2021/01/03 06:11:40;;;;;;;131.05;35.78;;;;;;;;;;5066473;28;20066;-59
2021/01/03 06:14:08;;;;;;;129.82;34.47;;;;;;;;;;5044758;28;20127;-60
2021/01/03 06:16:39;;;;;;;130.02;33.17;;;;;;;;;;5044514;28;20112;-60
2021/01/03 06:19:05;;;;;;;128.57;35.10;;;;;;;;;;5054773;28;24113;-60
2021/01/03 06:21:33;;;;;;;129.93;35.08;;;;;;;;;;5051559;28;20040;-60
2021/01/03 06:24:02;;;;;;;134.27;34.30;;;;;;;;;;5053580;28;20044;-60
2021/01/03 06:26:32;;;;;;;138.93;33.58;;;;;;;;;;5048813;28;20383;-60
2021/01/03 06:29:03;;;;;;;129.50;34.60;;;;;;;;;;5051882;28;20047;-60
2021/01/03 06:31:39;;;;;;;140.82;34.97;;;;;;;;;;5049263;28;20032;-60
2021/01/03 06:34:17;;;;;;;134.20;35.28;;;;;;;;;;5049399;28;20087;-60
2021/01/03 06:36:43;;;;;;;143.45;35.80;;;;;;;;;;5048936;28;20033;-60
2021/01/03 06:39:11;;;;;;;139.70;36.00;;;;;;;;;;5048627;28;20029;-60
2021/01/03 06:41:55;;;;;;;141.68;36.35;;;;;;;;;;5046941;28;20041;-60
2021/01/03 06:44:40;;;;;;;131.50;35.08;;;;;;;;;;5050814;28;20043;-60
2021/01/03 06:47:15;;;;;;;130.77;33.50;;;;;;;;;;5058098;28;20086;-60
2021/01/03 06:49:44;;;;;;;137.10;33.80;;;;;;;;;;5052060;28;20044;-60
2021/01/03 06:52:10;;;;;;;138.45;33.75;;;;;;;;;;5050915;28;20032;-60
2021/01/03 06:54:36;;;;;;;141.45;35.78;;;;;;;;;;5055218;28;20138;-59
2021/01/03 06:57:14;;;;;;;138.05;35.33;;;;;;;;;;5055421;28;20037;-60
2021/01/03 06:59:46;;;;;;;148.18;36.63;;;;;;;;;;5048058;28;20036;-60
2021/01/03 07:02:12;;;;;;;138.27;35.85;;;;;;;;;;5050208;28;20040;-60
2021/01/03 07:04:39;;;;;;;140.48;36.28;;;;;;;;;;5043227;28;20466;-60
2021/01/03 07:07:17;;;;;;;136.48;35.92;;;;;;;;;;5043466;28;20047;-60
2021/01/03 07:10:04;;;;;;;147.52;37.15;;;;;;;;;;5041426;28;20060;-60
2021/01/03 07:12:39;;;;;;;143.32;35.55;;;;;;;;;;5055282;28;20036;-60
2021/01/03 07:15:08;;;;;;;133.00;34.83;;;;;;;;;;5049296;28;20036;-60
2021/01/03 07:17:52;;;;;;;126.80;34.25;;;;;;;;;;5052207;28;20052;-60
2021/01/03 07:20:30;;;;;;;137.07;37.20;;;;;;;;;;5055516;28;20040;-60
2021/01/03 07:23:01;;;;;;;131.85;34.47;;;;;;;;;;5044696;28;20205;-60
2021/01/03 07:25:30;;;;;;;121.43;34.95;;;;;;;;;;5047787;28;20070;-60
2021/01/03 07:28:06;;;;;;;134.07;35.28;;;;;;;;;;5048172;28;20043;-60
2021/01/03 07:30:40;;;;;;;121.18;35.03;;;;;;;;;;5044802;28;20646;-60
2021/01/03 07:33:17;;;;;;;120.25;33.20;;;;;;;;;;5049286;28;20994;-60
2021/01/03 07:35:43;;;;;;;106.53;33.13;;;;;;;;;;5049999;28;20382;-60
2021/01/03 07:38:22;;;;;;;122.90;32.88;;;;;;;;;;5046534;28;20039;-60
2021/01/03 07:40:54;;;;;;;120.03;32.08;;;;;;;;;;5046271;28;20044;-60
2021/01/03 07:43:20;;;;;;;112.70;33.65;;;;;;;;;;5049706;28;20463;-60
2021/01/03 07:45:48;;;;;;;105.45;31.58;;;;;;;;;;5051316;28;20090;-60
2021/01/03 07:48:32;;;;;;;97.28;30.90;;;;;;;;;;5050908;28;20032;-60
2021/01/03 07:50:59;;;;;;;116.10;31.48;;;;;;;;;;5053063;28;20037;-60
2021/01/03 07:53:29;;;;;;;103.53;31.83;;;;;;;;;;5047378;28;23385;-60
2021/01/03 07:56:12;;;;;;;104.40;29.75;;;;;;;;;;5060723;28;20068;-60
2021/01/03 07:58:38;;;;;;;102.20;30.00;;;;;;;;;;5042223;28;20053;-60
2021/01/03 08:01:04;;;;;;;96.93;30.80;;;;;;;;;;5047420;28;20029;-60
2021/01/03 08:03:31;;;;;;;100.55;29.73;;;;;;;;;;5045411;28;20045;-60
2021/01/03 08:06:05;;;;;;;88.45;27.90;;;;;;;;;;5055678;28;20124;-60
2021/01/03 08:08:31;;;;;;;93.72;28.65;;;;;;;;;;5054015;28;20072;-60
2021/01/03 08:11:15;;;;;;;95.47;29.20;;;;;;;;;;5072118;28;20125;-60
2021/01/03 08:13:43;;;;;;;94.95;29.13;;;;;;;;;;5050128;28;20060;-60
2021/01/03 08:16:10;;;;;;;85.60;29.02;;;;;;;;;;5056132;28;20048;-60
2021/01/03 08:18:40;;;;;;;94.10;27.23;;;;;;;;;;5055015;28;20378;-60
2021/01/03 08:21:28;;;;;;;88.88;27.23;;;;;;;;;;5058213;28;20036;-60
2021/01/03 08:24:01;;;;;;;83.65;27.17;;;;;;;;;;5050141;28;20101;-60
2021/01/03 08:26:28;;;;;;;85.03;25.70;;;;;;;;;;5049372;28;20041;-60
2021/01/03 08:29:06;;;;;;;78.78;26.27;;;;;;;;;;5050059;28;20446;-60
2021/01/03 08:31:32;;;;;;;76.07;25.08;;;;;;;;;;5050982;28;20138;-60
2021/01/03 08:34:00;;;;;;;73.65;25.67;;;;;;;;;;5072816;28;20032;-60
2021/01/03 08:36:28;;;;;;;71.07;24.92;;;;;;;;;;5047906;28;20043;-60
2021/01/03 08:38:55;;;;;;;70.85;23.35;;;;;;;;;;5054588;28;20522;-59
2021/01/03 08:41:23;;;;;;;71.05;23.67;;;;;;;;;;5058393;28;20036;-60
2021/01/03 08:43:49;;;;;;;63.20;22.38;;;;;;;;;;5064543;28;20503;-60
2021/01/03 08:46:26;;;;;;;70.95;22.27;;;;;;;;;;5049841;28;20461;-60
2021/01/03 08:49:03;;;;;;;60.90;22.35;;;;;;;;;;5057389;28;20044;-60
2021/01/03 08:51:29;;;;;;;59.65;23.10;;;;;;;;;;5046949;28;20083;-60
2021/01/03 08:54:02;;;;;;;57.47;20.10;;;;;;;;;;5050747;28;20043;-60
2021/01/03 08:56:31;;;;;;;60.25;20.95;;;;;;;;;;5058219;28;20036;-60
2021/01/03 08:58:57;;;;;;;60.03;20.10;;;;;;;;;;5055073;28;20032;-60
2021/01/03 09:01:26;;;;;;;52.50;19.73;;;;;;;;;;5044629;28;20036;-60
2021/01/03 09:03:54;;;;;;;50.22;19.67;;;;;;;;;;5067331;28;20029;-60
2021/01/03 09:06:20;;;;;;;46.40;18.42;;;;;;;;;;5043252;28;20047;-60
2021/01/03 09:08:47;;;;;;;44.67;17.13;;;;;;;;;;5045079;28;20324;-60
2021/01/03 09:11:19;;;;;;;43.40;16.52;;;;;;;;;;5043766;28;20042;-60
2021/01/03 09:13:47;;;;;;;36.22;16.38;;;;;;;;;;5054145;28;20044;-59
2021/01/03 09:16:22;;;;;;;36.13;16.48;;;;;;;;;;5044012;28;20041;-60
2021/01/03 09:19:23;;;;;;;37.28;15.27;;;;;;;;;;5047654;28;20044;-60
2021/01/03 09:21:51;;;;;;;34.28;16.00;;;;;;;;;;4992780;28;20503;-60
2021/01/03 09:24:43;;;;;;;38.65;15.60;;;;;;;;;;5041198;28;20106;-60
2021/01/03 09:27:10;;;;;;;36.28;15.13;;;;;;;;;;5073595;28;20416;-60
2021/01/03 09:29:37;;;;;;;38.30;14.98;;;;;;;;;;5052658;28;20547;-60
2021/01/03 09:32:22;;;;;;;32.83;15.25;;;;;;;;;;5055017;28;20464;-60
2021/01/03 09:34:51;;;;;;;28.50;13.65;;;;;;;;;;5056190;28;20536;-60
2021/01/03 09:37:29;;;;;;;33.78;16.17;;;;;;;;;;5054610;28;20544;-60
2021/01/03 09:39:58;;;;;;;27.92;14.07;;;;;;;;;;5055371;28;20055;-60
2021/01/03 09:42:33;;;;;;;31.10;14.07;;;;;;;;;;5057517;28;20044;-60
2021/01/03 09:45:18;;;;;;;28.50;13.18;;;;;;;;;;5072682;28;20044;-60
2021/01/03 09:47:45;;;;;;;27.60;13.65;;;;;;;;;;5062614;28;20144;-60
2021/01/03 09:50:21;;;;;;;34.25;15.07;;;;;;;;;;5057539;28;20037;-60
2021/01/03 09:53:10;;;;;;;27.25;12.80;;;;;;;;;;5057031;28;20067;-60
2021/01/03 09:55:41;;;;;;;29.58;13.50;;;;;;;;;;5054130;28;20049;-59
2021/01/03 09:58:08;;;;;;;31.23;14.00;;;;;;;;;;5058505;28;20043;-59
2021/01/03 10:00:48;;;;;;;27.60;13.98;;;;;;;;;;5060203;28;20037;-60
2021/01/03 10:03:23;;;;;;;30.38;13.77;;;;;;;;;;5063007;28;20650;-60
2021/01/03 10:05:49;;;;;;;28.95;13.80;;;;;;;;;;5055009;28;20131;-60
2021/01/03 10:08:24;;;;;;;27.35;13.63;;;;;;;;;;5053786;28;20033;-60
2021/01/03 10:10:52;;;;;;;31.98;14.48;;;;;;;;;;5060167;28;20044;-60
2021/01/03 10:13:19;;;;;;;26.83;13.68;;;;;;;;;;5054990;28;20041;-59
2021/01/03 10:15:52;;;;;;;23.85;12.75;;;;;;;;;;5058980;28;20040;-60
2021/01/03 10:18:38;;;;;;;25.20;13.20;;;;;;;;;;5056186;28;20116;-61
2021/01/03 10:21:23;;;;;;;24.05;12.90;;;;;;;;;;5047819;28;20053;-58
2021/01/03 10:24:15;;;;;;;25.40;12.75;;;;;;;;;;5018992;28;20060;-62
2021/01/03 10:26:41;;;;;;;22.60;11.23;;;;;;;;;;5051417;28;20086;-59
2021/01/03 10:29:07;;;;;;;21.05;9.60;;;;;;;;;;5052772;28;20497;-60
2021/01/03 10:31:39;;;;;;;15.48;9.30;;;;;;;;;;5053879;28;20041;-59
2021/01/03 10:34:05;;;;;;;15.73;8.82;;;;;;;;;;5048803;28;20044;-59
2021/01/03 10:36:31;;;;;;;14.18;8.15;;;;;;;;;;5050310;28;20025;-60
2021/01/03 10:38:57;;;;;;;14.30;8.70;;;;;;;;;;5050340;28;20032;-59
2021/01/03 10:41:28;;;;;;;15.00;8.05;;;;;;;;;;5064874;28;20085;-59
2021/01/03 10:43:54;;;;;;;14.35;8.38;;;;;;;;;;5050209;28;20037;-60
2021/01/03 10:46:20;;;;;;;18.52;9.32;;;;;;;;;;5049926;28;20574;-59
2021/01/03 10:48:46;;;;;;;19.52;10.27;;;;;;;;;;5056137;28;22944;-60
2021/01/03 10:51:12;;;;;;;21.17;11.07;;;;;;;;;;5056138;28;20039;-60
2021/01/03 10:53:38;;;;;;;20.10;11.20;;;;;;;;;;5052462;28;20097;-60
2021/01/03 10:56:04;;;;;;;20.70;10.90;;;;;;;;;;5052755;28;20049;-60
2021/01/03 10:58:30;;;;;;;21.45;11.32;;;;;;;;;;5052858;28;20116;-60
2021/01/03 11:00:56;;;;;;;22.85;12.18;;;;;;;;;;5065191;28;20093;-60
2021/01/03 11:03:22;;;;;;;26.05;12.10;;;;;;;;;;5043197;22;24952;-60
2021/01/03 11:05:48;;;;;;;21.38;11.02;;;;;;;;;;5028394;28;20445;-60
2021/01/03 11:08:14;;;;;;;19.15;10.98;;;;;;;;;;5032212;28;20045;-60
2021/01/03 11:10:40;;;;;;;18.88;10.05;;;;;;;;;;5027419;28;20184;-60
2021/01/03 11:13:06;;;;;;;19.83;10.40;;;;;;;;;;5024875;28;20049;-60
2021/01/03 11:15:32;;;;;;;22.70;10.50;;;;;;;;;;5027400;28;20124;-61
2021/01/03 11:17:58;;;;;;;16.13;9.45;;;;;;;;;;5029920;28;20045;-60
2021/01/03 11:20:24;;;;;;;18.60;9.95;;;;;;;;;;5029296;28;20657;-60
2021/01/03 11:22:50;;;;;;;16.35;8.60;;;;;;;;;;5030940;28;20037;-64
2021/01/03 11:25:17;;;;;;;17.15;9.18;;;;;;;;;;5025437;28;21038;-64
2021/01/03 11:30:28;;;;;;;14.30;9.20;;;;;;;;;;5048017;28;20044;-59
2021/01/03 11:32:54;;;;;;;15.30;9.13;;;;;;;;;;5066808;28;20047;-59
2021/01/03 11:35:21;;;;;;;14.45;8.60;;;;;;;;;;5073124;28;20032;-60
2021/01/03 11:37:48;;;;;;;14.00;8.85;;;;;;;;;;5071443;28;20036;-60
2021/01/03 11:40:14;;;;;;;12.15;8.18;;;;;;;;;;5068945;28;20040;-59
2021/01/03 11:42:41;;;;;;;14.10;8.35;;;;;;;;;;5045721;28;20040;-59
2021/01/03 11:45:08;;;;;;;17.05;8.35;;;;;;;;;;5076044;28;20440;-59
2021/01/03 11:47:34;;;;;;;14.07;8.52;;;;;;;;;;5075209;28;20564;-59
2021/01/03 11:50:00;;;;;;;14.57;7.88;;;;;;;;;;5069160;28;20505;-60
2021/01/03 11:52:27;;;;;;;14.10;8.32;;;;;;;;;;5075939;28;20135;-59
2021/01/03 11:54:53;;;;;;;11.98;7.07;;;;;;;;;;5076636;28;20558;-60
2021/01/03 11:57:19;;;;;;;13.48;8.20;;;;;;;;;;5074236;28;20044;-60
2021/01/03 11:59:45;;;;;;;13.63;8.68;;;;;;;;;;5076386;28;20672;-61
2021/01/03 12:02:11;;;;;;;12.07;7.75;;;;;;;;;;5076285;28;20036;-60
2021/01/03 12:04:38;;;;;;;11.50;7.95;;;;;;;;;;5075858;28;20040;-59
2021/01/03 12:07:05;;;;;;;14.07;8.27;;;;;;;;;;5078976;28;20051;-60
2021/01/03 12:09:32;;;;;;;9.85;6.65;;;;;;;;;;5080269;28;20028;-60
2021/01/03 12:11:59;;;;;;;10.40;6.95;;;;;;;;;;5081240;28;20032;-60
2021/01/03 12:14:25;;;;;;;9.98;6.88;;;;;;;;;;5077889;28;20036;-60
2021/01/03 12:16:55;;;;;;;11.52;7.55;;;;;;;;;;5076897;28;20047;-60
2021/01/03 12:19:22;;;;;;;11.18;7.10;;;;;;;;;;5057408;28;20618;-60
2021/01/03 12:21:48;;;;;;;10.00;7.03;;;;;;;;;;5077773;28;20050;-60
2021/01/03 12:24:14;;;;;;;10.30;7.07;;;;;;;;;;5075983;28;20115;-60
2021/01/03 12:26:41;;;;;;;12.23;8.02;;;;;;;;;;5077792;28;20054;-60
2021/01/03 12:29:08;;;;;;;12.02;7.20;;;;;;;;;;5075000;28;20183;-60
2021/01/03 12:31:38;;;;;;;13.07;7.50;;;;;;;;;;5075144;28;20042;-60
2021/01/03 12:34:04;;;;;;;13.43;7.65;;;;;;;;;;5075556;28;20051;-60
2021/01/03 12:36:30;;;;;;;11.65;6.75;;;;;;;;;;5074855;28;20052;-60
2021/01/03 12:38:56;;;;;;;10.93;7.18;;;;;;;;;;5072355;28;20032;-60
2021/01/03 12:41:23;;;;;;;11.45;7.15;;;;;;;;;;5071768;28;20199;-59
2021/01/03 12:43:49;;;;;;;14.05;7.28;;;;;;;;;;5075476;28;20055;-61
2021/01/03 12:46:23;;;;;;;12.20;7.15;;;;;;;;;;5075799;28;20031;-60
2021/01/03 12:48:49;;;;;;;12.55;7.57;;;;;;;;;;5077314;28;20032;-60
2021/01/03 12:51:15;;;;;;;10.82;6.65;;;;;;;;;;5075349;28;20032;-60
2021/01/03 12:53:41;;;;;;;11.48;7.13;;;;;;;;;;5080427;28;20480;-60
2021/01/03 12:56:07;;;;;;;10.73;7.10;;;;;;;;;;5075891;28;20061;-60
2021/01/03 12:58:33;;;;;;;12.35;7.00;;;;;;;;;;5078015;28;20036;-60
2021/01/03 13:00:59;;;;;;;12.90;7.15;;;;;;;;;;5074635;28;20093;-59
2021/01/03 13:03:25;;;;;;;13.52;7.88;;;;;;;;;;5076928;28;20039;-59
2021/01/03 13:05:51;;;;;;;13.88;8.00;;;;;;;;;;5074917;28;20048;-59
2021/01/03 13:08:17;;;;;;;12.15;7.72;;;;;;;;;;5072750;28;20055;-60
2021/01/03 13:10:43;;;;;;;13.02;7.45;;;;;;;;;;5076109;28;20747;-60
2021/01/03 13:13:09;;;;;;;13.68;7.93;;;;;;;;;;5078122;28;20138;-60
2021/01/03 13:15:35;;;;;;;12.45;7.70;;;;;;;;;;5076798;28;20048;-59
2021/01/03 13:18:01;;;;;;;13.18;7.63;;;;;;;;;;5078248;28;20033;-60
2021/01/03 13:20:27;;;;;;;14.90;8.10;;;;;;;;;;5075389;28;20886;-60
2021/01/03 13:22:53;;;;;;;14.02;8.05;;;;;;;;;;5073226;28;20369;-60
2021/01/03 13:25:19;;;;;;;12.25;7.22;;;;;;;;;;5074679;28;20535;-60
2021/01/03 13:27:45;;;;;;;14.05;8.27;;;;;;;;;;5089720;28;20048;-59
2021/01/03 13:30:11;;;;;;;14.70;8.30;;;;;;;;;;5073806;28;20043;-60
2021/01/03 13:32:37;;;;;;;13.23;7.28;;;;;;;;;;5078704;28;20075;-60
2021/01/03 13:35:03;;;;;;;12.63;7.60;;;;;;;;;;5076188;28;20068;-60
2021/01/03 13:37:29;;;;;;;12.40;7.57;;;;;;;;;;5077807;28;20040;-60
2021/01/03 13:39:55;;;;;;;13.90;8.20;;;;;;;;;;5078023;28;20059;-60
2021/01/03 13:42:21;;;;;;;12.95;6.82;;;;;;;;;;5077289;28;21798;-59
2021/01/03 13:44:48;;;;;;;13.00;7.75;;;;;;;;;;5075752;28;20872;-60
2021/01/03 13:47:14;;;;;;;12.07;7.45;;;;;;;;;;5076282;28;20037;-60
2021/01/03 13:49:40;;;;;;;14.68;7.05;;;;;;;;;;5076673;28;20739;-60
2021/01/03 13:52:06;;;;;;;14.43;6.72;;;;;;;;;;5082780;28;20036;-60
2021/01/03 13:54:32;;;;;;;11.45;7.28;;;;;;;;;;5082597;28;20040;-60
2021/01/03 13:56:58;;;;;;;10.07;6.43;;;;;;;;;;5080399;28;20032;-60
2021/01/03 13:59:24;;;;;;;10.73;6.75;;;;;;;;;;5073582;28;20036;-59
2021/01/03 14:01:50;;;;;;;11.55;6.38;;;;;;;;;;5076458;28;20040;-60
2021/01/03 14:04:16;;;;;;;10.32;7.07;;;;;;;;;;5078358;28;20032;-60
2021/01/03 14:06:42;;;;;;;12.85;7.22;;;;;;;;;;5078565;28;20473;-59
2021/01/03 14:09:08;;;;;;;10.30;6.10;;;;;;;;;;5079433;28;20045;-60
2021/01/03 14:11:34;;;;;;;12.68;6.55;;;;;;;;;;5074593;28;20115;-60
2021/01/03 14:14:01;;;;;;;8.00;5.38;;;;;;;;;;5077997;28;20471;-60
2021/01/03 14:16:28;;;;;;;8.48;5.80;;;;;;;;;;5074401;28;20051;-60
2021/01/03 14:18:54;;;;;;;11.25;5.68;;;;;;;;;;5075958;28;20045;-60
2021/01/03 14:21:22;;;;;;;8.80;6.47;;;;;;;;;;5077022;28;20090;-60
2021/01/03 14:23:48;;;;;;;10.93;5.75;;;;;;;;;;5077367;28;20036;-59
2021/01/03 14:26:14;;;;;;;8.48;5.50;;;;;;;;;;5076899;28;20062;-59